sensor_id;sensor_type;location;lat;lon;timestamp;P1;durP1;ratioP1;P2;durP2;ratioP2
38479;SDS011;62333;51.980;5.934;2022-10-10T00:01:17;4.40;;;1.83;;
38479;SDS011;62333;51.980;5.934;2022-10-10T00:03:44;5.47;;;1.60;;
38479;SDS011;62333;51.980;5.934;2022-10-10T00:06:11;7.50;;;1.90;;
38479;SDS011;62333;51.980;5.934;2022-10-10T00:08:37;2.78;;;1.45;;
38479;SDS011;62333;51.980;5.934;2022-10-10T00:11:03;4.95;;;1.65;;
38479;SDS011;62333;51.980;5.934;2022-10-10T00:13:29;2.88;;;0.75;;
38479;SDS011;62333;51.980;5.934;2022-10-10T00:15:56;4.50;;;1.90;;
38479;SDS011;62333;51.980;5.934;2022-10-10T00:18:22;4.97;;;1.13;;
38479;SDS011;62333;51.980;5.934;2022-10-10T00:20:49;4.05;;;1.40;;
38479;SDS011;62333;51.980;5.934;2022-10-10T00:23:16;2.17;;;0.82;;
38479;SDS011;62333;51.980;5.934;2022-10-10T00:25:41;5.38;;;1.75;;
38479;SDS011;62333;51.980;5.934;2022-10-10T00:28:07;6.43;;;2.03;;
38479;SDS011;62333;51.980;5.934;2022-10-10T00:30:33;4.65;;;1.00;;
38479;SDS011;62333;51.980;5.934;2022-10-10T00:32:59;5.03;;;1.50;;
38479;SDS011;62333;51.980;5.934;2022-10-10T00:35:24;3.92;;;1.48;;
38479;SDS011;62333;51.980;5.934;2022-10-10T00:37:50;3.15;;;1.05;;
38479;SDS011;62333;51.980;5.934;2022-10-10T00:40:16;3.90;;;1.45;;
38479;SDS011;62333;51.980;5.934;2022-10-10T00:42:42;2.50;;;1.08;;
38479;SDS011;62333;51.980;5.934;2022-10-10T00:45:41;7.15;;;1.13;;
38479;SDS011;62333;51.980;5.934;2022-10-10T00:48:07;4.75;;;1.20;;
38479;SDS011;62333;51.980;5.934;2022-10-10T00:50:42;4.13;;;1.83;;
38479;SDS011;62333;51.980;5.934;2022-10-10T00:53:13;3.10;;;1.23;;
38479;SDS011;62333;51.980;5.934;2022-10-10T00:55:40;2.08;;;1.20;;
38479;SDS011;62333;51.980;5.934;2022-10-10T00:58:06;2.42;;;0.90;;
38479;SDS011;62333;51.980;5.934;2022-10-10T01:00:32;12.90;;;1.75;;
38479;SDS011;62333;51.980;5.934;2022-10-10T01:02:58;2.00;;;0.77;;
38479;SDS011;62333;51.980;5.934;2022-10-10T01:05:24;2.72;;;0.95;;
38479;SDS011;62333;51.980;5.934;2022-10-10T01:07:50;6.35;;;1.00;;
38479;SDS011;62333;51.980;5.934;2022-10-10T01:10:16;3.22;;;0.93;;
38479;SDS011;62333;51.980;5.934;2022-10-10T01:20:55;3.63;;;0.90;;
38479;SDS011;62333;51.980;5.934;2022-10-10T01:26:18;2.08;;;0.80;;
38479;SDS011;62333;51.980;5.934;2022-10-10T01:29:20;3.30;;;1.15;;
38479;SDS011;62333;51.980;5.934;2022-10-10T01:31:57;3.25;;;1.40;;
38479;SDS011;62333;51.980;5.934;2022-10-10T01:37:13;3.63;;;1.15;;
38479;SDS011;62333;51.980;5.934;2022-10-10T01:42:13;3.58;;;1.35;;
38479;SDS011;62333;51.980;5.934;2022-10-10T01:44:44;2.55;;;0.93;;
38479;SDS011;62333;51.980;5.934;2022-10-10T01:47:11;3.88;;;1.25;;
38479;SDS011;62333;51.980;5.934;2022-10-10T01:49:37;3.92;;;1.40;;
38479;SDS011;62333;51.980;5.934;2022-10-10T02:00:27;3.95;;;0.82;;
38479;SDS011;62333;51.980;5.934;2022-10-10T02:08:02;2.13;;;0.60;;
38479;SDS011;62333;51.980;5.934;2022-10-10T02:10:30;2.70;;;0.60;;
38479;SDS011;62333;51.980;5.934;2022-10-10T02:12:59;3.65;;;1.35;;
38479;SDS011;62333;51.980;5.934;2022-10-10T02:15:28;1.83;;;0.80;;
38479;SDS011;62333;51.980;5.934;2022-10-10T02:17:58;2.85;;;1.00;;
38479;SDS011;62333;51.980;5.934;2022-10-10T02:20:27;2.92;;;1.15;;
38479;SDS011;62333;51.980;5.934;2022-10-10T02:22:55;3.38;;;0.88;;
38479;SDS011;62333;51.980;5.934;2022-10-10T02:25:22;5.72;;;1.10;;
38479;SDS011;62333;51.980;5.934;2022-10-10T02:30:39;2.70;;;1.00;;
38479;SDS011;62333;51.980;5.934;2022-10-10T02:33:09;1.80;;;0.80;;
38479;SDS011;62333;51.980;5.934;2022-10-10T02:35:38;1.92;;;0.93;;
38479;SDS011;62333;51.980;5.934;2022-10-10T02:38:07;3.80;;;1.13;;
38479;SDS011;62333;51.980;5.934;2022-10-10T02:40:35;2.67;;;1.30;;
38479;SDS011;62333;51.980;5.934;2022-10-10T02:43:02;2.00;;;1.08;;
38479;SDS011;62333;51.980;5.934;2022-10-10T02:45:30;2.03;;;1.38;;
38479;SDS011;62333;51.980;5.934;2022-10-10T02:47:57;2.22;;;0.90;;
38479;SDS011;62333;51.980;5.934;2022-10-10T02:50:24;3.17;;;1.40;;
38479;SDS011;62333;51.980;5.934;2022-10-10T02:52:51;2.63;;;0.85;;
38479;SDS011;62333;51.980;5.934;2022-10-10T02:55:17;4.93;;;1.20;;
38479;SDS011;62333;51.980;5.934;2022-10-10T02:57:42;2.78;;;0.77;;
38479;SDS011;62333;51.980;5.934;2022-10-10T03:00:08;2.92;;;1.10;;
38479;SDS011;62333;51.980;5.934;2022-10-10T03:02:34;1.60;;;0.60;;
38479;SDS011;62333;51.980;5.934;2022-10-10T03:05:00;2.33;;;1.00;;
38479;SDS011;62333;51.980;5.934;2022-10-10T03:07:26;2.95;;;1.05;;
38479;SDS011;62333;51.980;5.934;2022-10-10T03:09:51;3.30;;;1.33;;
38479;SDS011;62333;51.980;5.934;2022-10-10T03:12:17;3.35;;;0.52;;
38479;SDS011;62333;51.980;5.934;2022-10-10T03:14:43;1.83;;;0.93;;
38479;SDS011;62333;51.980;5.934;2022-10-10T03:17:08;2.75;;;1.00;;
38479;SDS011;62333;51.980;5.934;2022-10-10T03:19:34;2.08;;;0.98;;
38479;SDS011;62333;51.980;5.934;2022-10-10T03:22:00;5.57;;;0.90;;
38479;SDS011;62333;51.980;5.934;2022-10-10T03:24:26;3.75;;;1.42;;
38479;SDS011;62333;51.980;5.934;2022-10-10T03:26:51;2.95;;;0.75;;
38479;SDS011;62333;51.980;5.934;2022-10-10T03:29:17;2.63;;;1.15;;
38479;SDS011;62333;51.980;5.934;2022-10-10T03:31:43;1.90;;;0.90;;
38479;SDS011;62333;51.980;5.934;2022-10-10T03:34:08;3.28;;;1.13;;
38479;SDS011;62333;51.980;5.934;2022-10-10T03:36:34;3.20;;;0.95;;
38479;SDS011;62333;51.980;5.934;2022-10-10T03:39:00;2.28;;;0.68;;
38479;SDS011;62333;51.980;5.934;2022-10-10T03:41:25;2.67;;;1.13;;
38479;SDS011;62333;51.980;5.934;2022-10-10T03:43:51;2.60;;;0.85;;
38479;SDS011;62333;51.980;5.934;2022-10-10T03:46:17;2.83;;;0.88;;
38479;SDS011;62333;51.980;5.934;2022-10-10T03:48:43;3.13;;;1.48;;
38479;SDS011;62333;51.980;5.934;2022-10-10T03:51:08;3.28;;;1.30;;
38479;SDS011;62333;51.980;5.934;2022-10-10T03:53:34;2.20;;;0.88;;
38479;SDS011;62333;51.980;5.934;2022-10-10T03:56:00;1.33;;;0.70;;
38479;SDS011;62333;51.980;5.934;2022-10-10T03:58:26;2.47;;;0.70;;
38479;SDS011;62333;51.980;5.934;2022-10-10T04:00:55;2.40;;;1.23;;
38479;SDS011;62333;51.980;5.934;2022-10-10T04:03:22;2.17;;;0.90;;
38479;SDS011;62333;51.980;5.934;2022-10-10T04:05:48;2.22;;;1.02;;
38479;SDS011;62333;51.980;5.934;2022-10-10T04:08:14;3.03;;;0.95;;
38479;SDS011;62333;51.980;5.934;2022-10-10T04:10:40;2.25;;;1.27;;
38479;SDS011;62333;51.980;5.934;2022-10-10T04:13:06;3.35;;;1.40;;
38479;SDS011;62333;51.980;5.934;2022-10-10T04:15:31;1.90;;;0.80;;
38479;SDS011;62333;51.980;5.934;2022-10-10T04:17:57;3.15;;;1.30;;
38479;SDS011;62333;51.980;5.934;2022-10-10T04:20:23;3.92;;;1.27;;
38479;SDS011;62333;51.980;5.934;2022-10-10T04:22:50;1.83;;;1.10;;
38479;SDS011;62333;51.980;5.934;2022-10-10T04:25:15;2.83;;;1.05;;
38479;SDS011;62333;51.980;5.934;2022-10-10T04:27:41;2.22;;;1.00;;
38479;SDS011;62333;51.980;5.934;2022-10-10T04:30:10;2.42;;;1.05;;
38479;SDS011;62333;51.980;5.934;2022-10-10T04:32:36;3.22;;;1.42;;
38479;SDS011;62333;51.980;5.934;2022-10-10T04:35:02;3.72;;;1.48;;
38479;SDS011;62333;51.980;5.934;2022-10-10T04:37:28;2.58;;;1.30;;
38479;SDS011;62333;51.980;5.934;2022-10-10T04:39:53;4.15;;;1.13;;
38479;SDS011;62333;51.980;5.934;2022-10-10T04:42:20;2.55;;;1.38;;
38479;SDS011;62333;51.980;5.934;2022-10-10T04:44:45;2.53;;;1.10;;
38479;SDS011;62333;51.980;5.934;2022-10-10T04:47:11;2.53;;;1.10;;
38479;SDS011;62333;51.980;5.934;2022-10-10T04:49:37;2.08;;;0.75;;
38479;SDS011;62333;51.980;5.934;2022-10-10T04:52:03;3.53;;;1.45;;
38479;SDS011;62333;51.980;5.934;2022-10-10T04:54:28;1.50;;;0.65;;
38479;SDS011;62333;51.980;5.934;2022-10-10T04:56:54;2.03;;;0.90;;
38479;SDS011;62333;51.980;5.934;2022-10-10T04:59:20;2.78;;;1.20;;
38479;SDS011;62333;51.980;5.934;2022-10-10T05:01:45;1.33;;;0.65;;
38479;SDS011;62333;51.980;5.934;2022-10-10T05:04:11;3.17;;;1.40;;
38479;SDS011;62333;51.980;5.934;2022-10-10T05:06:38;3.42;;;1.10;;
38479;SDS011;62333;51.980;5.934;2022-10-10T05:09:04;3.38;;;0.90;;
38479;SDS011;62333;51.980;5.934;2022-10-10T05:11:30;2.83;;;0.93;;
38479;SDS011;62333;51.980;5.934;2022-10-10T05:13:55;3.20;;;1.02;;
38479;SDS011;62333;51.980;5.934;2022-10-10T05:16:21;4.82;;;1.65;;
38479;SDS011;62333;51.980;5.934;2022-10-10T05:18:47;3.53;;;0.82;;
38479;SDS011;62333;51.980;5.934;2022-10-10T05:21:12;2.75;;;0.98;;
38479;SDS011;62333;51.980;5.934;2022-10-10T05:23:38;3.42;;;1.00;;
38479;SDS011;62333;51.980;5.934;2022-10-10T05:26:05;2.08;;;0.80;;
38479;SDS011;62333;51.980;5.934;2022-10-10T05:28:31;3.45;;;0.95;;
38479;SDS011;62333;51.980;5.934;2022-10-10T05:30:59;4.97;;;1.25;;
38479;SDS011;62333;51.980;5.934;2022-10-10T05:33:24;2.75;;;0.98;;
38479;SDS011;62333;51.980;5.934;2022-10-10T05:35:50;2.80;;;1.20;;
38479;SDS011;62333;51.980;5.934;2022-10-10T05:38:16;2.15;;;0.93;;
38479;SDS011;62333;51.980;5.934;2022-10-10T05:40:42;2.92;;;0.80;;
38479;SDS011;62333;51.980;5.934;2022-10-10T05:43:08;5.22;;;1.55;;
38479;SDS011;62333;51.980;5.934;2022-10-10T05:45:34;2.17;;;0.88;;
38479;SDS011;62333;51.980;5.934;2022-10-10T05:48:00;4.85;;;1.73;;
38479;SDS011;62333;51.980;5.934;2022-10-10T05:52:58;1.95;;;0.93;;
38479;SDS011;62333;51.980;5.934;2022-10-10T05:55:24;4.65;;;1.33;;
38479;SDS011;62333;51.980;5.934;2022-10-10T05:57:50;2.63;;;0.82;;
38479;SDS011;62333;51.980;5.934;2022-10-10T06:00:16;2.50;;;1.27;;
38479;SDS011;62333;51.980;5.934;2022-10-10T06:02:41;3.83;;;1.60;;
38479;SDS011;62333;51.980;5.934;2022-10-10T06:05:07;5.30;;;1.38;;
38479;SDS011;62333;51.980;5.934;2022-10-10T06:07:33;5.38;;;1.73;;
38479;SDS011;62333;51.980;5.934;2022-10-10T06:09:59;2.47;;;0.98;;
38479;SDS011;62333;51.980;5.934;2022-10-10T06:12:24;2.92;;;1.20;;
38479;SDS011;62333;51.980;5.934;2022-10-10T06:14:50;5.00;;;2.40;;
38479;SDS011;62333;51.980;5.934;2022-10-10T06:17:16;2.90;;;1.52;;
38479;SDS011;62333;51.980;5.934;2022-10-10T06:19:41;3.42;;;1.30;;
38479;SDS011;62333;51.980;5.934;2022-10-10T06:22:07;4.60;;;1.50;;
38479;SDS011;62333;51.980;5.934;2022-10-10T06:24:33;5.78;;;2.10;;
38479;SDS011;62333;51.980;5.934;2022-10-10T06:26:58;5.25;;;2.00;;
38479;SDS011;62333;51.980;5.934;2022-10-10T06:29:24;8.20;;;2.90;;
38479;SDS011;62333;51.980;5.934;2022-10-10T06:31:50;14.32;;;4.53;;
38479;SDS011;62333;51.980;5.934;2022-10-10T06:34:16;18.75;;;5.32;;
38479;SDS011;62333;51.980;5.934;2022-10-10T06:36:42;13.57;;;5.30;;
38479;SDS011;62333;51.980;5.934;2022-10-10T06:39:07;7.13;;;3.08;;
38479;SDS011;62333;51.980;5.934;2022-10-10T06:41:33;5.53;;;2.83;;
38479;SDS011;62333;51.980;5.934;2022-10-10T06:43:59;4.35;;;1.88;;
38479;SDS011;62333;51.980;5.934;2022-10-10T06:46:24;7.53;;;2.45;;
38479;SDS011;62333;51.980;5.934;2022-10-10T06:48:50;6.45;;;1.55;;
38479;SDS011;62333;51.980;5.934;2022-10-10T06:51:16;7.95;;;2.80;;
38479;SDS011;62333;51.980;5.934;2022-10-10T06:53:43;3.72;;;2.05;;
38479;SDS011;62333;51.980;5.934;2022-10-10T06:56:12;4.55;;;1.30;;
38479;SDS011;62333;51.980;5.934;2022-10-10T06:58:45;3.40;;;0.98;;
38479;SDS011;62333;51.980;5.934;2022-10-10T07:01:11;5.75;;;1.80;;
38479;SDS011;62333;51.980;5.934;2022-10-10T07:03:37;5.28;;;1.42;;
38479;SDS011;62333;51.980;5.934;2022-10-10T07:06:03;5.43;;;2.53;;
38479;SDS011;62333;51.980;5.934;2022-10-10T07:08:32;3.95;;;2.22;;
38479;SDS011;62333;51.980;5.934;2022-10-10T07:10:58;2.47;;;1.20;;
38479;SDS011;62333;51.980;5.934;2022-10-10T07:13:24;2.60;;;1.27;;
38479;SDS011;62333;51.980;5.934;2022-10-10T07:15:50;5.35;;;2.30;;
38479;SDS011;62333;51.980;5.934;2022-10-10T07:18:16;4.78;;;1.55;;
38479;SDS011;62333;51.980;5.934;2022-10-10T07:20:42;3.10;;;1.80;;
38479;SDS011;62333;51.980;5.934;2022-10-10T07:23:08;5.63;;;2.17;;
38479;SDS011;62333;51.980;5.934;2022-10-10T07:25:36;5.38;;;1.60;;
38479;SDS011;62333;51.980;5.934;2022-10-10T07:28:03;3.17;;;1.63;;
38479;SDS011;62333;51.980;5.934;2022-10-10T07:30:29;3.78;;;1.85;;
38479;SDS011;62333;51.980;5.934;2022-10-10T07:32:55;6.15;;;2.40;;
38479;SDS011;62333;51.980;5.934;2022-10-10T07:35:21;6.45;;;2.08;;
38479;SDS011;62333;51.980;5.934;2022-10-10T07:37:48;2.78;;;1.35;;
38479;SDS011;62333;51.980;5.934;2022-10-10T07:40:18;1.95;;;0.90;;
38479;SDS011;62333;51.980;5.934;2022-10-10T07:42:44;5.20;;;1.75;;
38479;SDS011;62333;51.980;5.934;2022-10-10T07:45:10;7.93;;;2.75;;
38479;SDS011;62333;51.980;5.934;2022-10-10T07:47:36;3.08;;;1.65;;
38479;SDS011;62333;51.980;5.934;2022-10-10T07:50:03;4.82;;;2.05;;
38479;SDS011;62333;51.980;5.934;2022-10-10T07:52:31;6.82;;;2.67;;
38479;SDS011;62333;51.980;5.934;2022-10-10T07:54:58;3.63;;;1.65;;
38479;SDS011;62333;51.980;5.934;2022-10-10T07:57:24;2.72;;;1.58;;
38479;SDS011;62333;51.980;5.934;2022-10-10T07:59:50;3.95;;;1.63;;
38479;SDS011;62333;51.980;5.934;2022-10-10T08:02:16;3.05;;;1.70;;
38479;SDS011;62333;51.980;5.934;2022-10-10T08:04:42;2.70;;;1.52;;
38479;SDS011;62333;51.980;5.934;2022-10-10T08:07:08;7.22;;;2.13;;
38479;SDS011;62333;51.980;5.934;2022-10-10T08:09:33;3.17;;;1.67;;
38479;SDS011;62333;51.980;5.934;2022-10-10T08:11:59;4.10;;;2.35;;
38479;SDS011;62333;51.980;5.934;2022-10-10T08:14:25;5.88;;;1.60;;
38479;SDS011;62333;51.980;5.934;2022-10-10T08:16:50;4.50;;;1.60;;
38479;SDS011;62333;51.980;5.934;2022-10-10T08:19:16;4.90;;;1.85;;
38479;SDS011;62333;51.980;5.934;2022-10-10T08:21:42;4.57;;;1.70;;
38479;SDS011;62333;51.980;5.934;2022-10-10T08:24:08;3.78;;;1.42;;
38479;SDS011;62333;51.980;5.934;2022-10-10T08:26:33;4.97;;;1.67;;
38479;SDS011;62333;51.980;5.934;2022-10-10T08:28:59;4.55;;;1.25;;
38479;SDS011;62333;51.980;5.934;2022-10-10T08:31:24;4.68;;;1.58;;
38479;SDS011;62333;51.980;5.934;2022-10-10T08:33:50;12.40;;;2.83;;
38479;SDS011;62333;51.980;5.934;2022-10-10T08:36:18;5.25;;;2.20;;
38479;SDS011;62333;51.980;5.934;2022-10-10T08:38:45;5.22;;;2.45;;
38479;SDS011;62333;51.980;5.934;2022-10-10T08:41:30;3.92;;;1.73;;
38479;SDS011;62333;51.980;5.934;2022-10-10T08:49:34;6.18;;;2.35;;
38479;SDS011;62333;51.980;5.934;2022-10-10T08:55:05;3.30;;;1.80;;
38479;SDS011;62333;51.980;5.934;2022-10-10T09:00:40;2.97;;;1.38;;
38479;SDS011;62333;51.980;5.934;2022-10-10T09:03:35;6.65;;;2.80;;
38479;SDS011;62333;51.980;5.934;2022-10-10T09:08:56;6.50;;;2.03;;
38479;SDS011;62333;51.980;5.934;2022-10-10T09:11:47;2.53;;;1.20;;
38479;SDS011;62333;51.980;5.934;2022-10-10T09:14:52;3.33;;;1.60;;
38479;SDS011;62333;51.980;5.934;2022-10-10T09:17:37;4.38;;;1.88;;
38479;SDS011;62333;51.980;5.934;2022-10-10T09:20:17;8.35;;;1.63;;
38479;SDS011;62333;51.980;5.934;2022-10-10T09:26:02;3.00;;;1.50;;
38479;SDS011;62333;51.980;5.934;2022-10-10T09:31:25;9.23;;;3.45;;
38479;SDS011;62333;51.980;5.934;2022-10-10T09:36:43;4.18;;;2.25;;
38479;SDS011;62333;51.980;5.934;2022-10-10T09:42:11;4.57;;;1.75;;
38479;SDS011;62333;51.980;5.934;2022-10-10T09:44:42;5.82;;;2.63;;
38479;SDS011;62333;51.980;5.934;2022-10-10T09:47:12;3.88;;;1.73;;
38479;SDS011;62333;51.980;5.934;2022-10-10T09:49:40;4.60;;;0.87;;
38479;SDS011;62333;51.980;5.934;2022-10-10T09:52:24;2.25;;;1.33;;
38479;SDS011;62333;51.980;5.934;2022-10-10T09:55:02;9.25;;;1.70;;
38479;SDS011;62333;51.980;5.934;2022-10-10T09:57:38;7.10;;;1.88;;
38479;SDS011;62333;51.980;5.934;2022-10-10T10:00:39;5.45;;;1.85;;
38479;SDS011;62333;51.980;5.934;2022-10-10T10:03:10;7.07;;;3.58;;
38479;SDS011;62333;51.980;5.934;2022-10-10T10:05:37;6.00;;;2.58;;
38479;SDS011;62333;51.980;5.934;2022-10-10T10:08:04;4.43;;;1.98;;
38479;SDS011;62333;51.980;5.934;2022-10-10T10:10:33;4.57;;;1.90;;
38479;SDS011;62333;51.980;5.934;2022-10-10T10:12:59;5.50;;;2.42;;
38479;SDS011;62333;51.980;5.934;2022-10-10T10:15:30;2.38;;;1.40;;
38479;SDS011;62333;51.980;5.934;2022-10-10T10:18:09;5.43;;;1.75;;
38479;SDS011;62333;51.980;5.934;2022-10-10T10:20:41;3.60;;;0.90;;
38479;SDS011;62333;51.980;5.934;2022-10-10T10:23:23;3.35;;;1.80;;
38479;SDS011;62333;51.980;5.934;2022-10-10T10:25:56;3.88;;;1.48;;
38479;SDS011;62333;51.980;5.934;2022-10-10T10:28:43;5.13;;;1.50;;
38479;SDS011;62333;51.980;5.934;2022-10-10T10:31:18;4.60;;;1.80;;
38479;SDS011;62333;51.980;5.934;2022-10-10T10:36:38;3.90;;;2.05;;
38479;SDS011;62333;51.980;5.934;2022-10-10T10:44:32;4.65;;;1.67;;
38479;SDS011;62333;51.980;5.934;2022-10-10T10:58:00;3.80;;;1.65;;
38479;SDS011;62333;51.980;5.934;2022-10-10T11:00:31;3.28;;;1.50;;
38479;SDS011;62333;51.980;5.934;2022-10-10T11:06:00;3.00;;;0.85;;
38479;SDS011;62333;51.980;5.934;2022-10-10T11:13:50;5.07;;;1.70;;
38479;SDS011;62333;51.980;5.934;2022-10-10T11:16:45;4.60;;;1.10;;
38479;SDS011;62333;51.980;5.934;2022-10-10T11:22:30;4.65;;;1.63;;
38479;SDS011;62333;51.980;5.934;2022-10-10T11:25:02;3.88;;;1.50;;
38479;SDS011;62333;51.980;5.934;2022-10-10T11:27:43;4.22;;;1.30;;
38479;SDS011;62333;51.980;5.934;2022-10-10T11:30:25;7.60;;;1.85;;
38479;SDS011;62333;51.980;5.934;2022-10-10T11:33:05;4.40;;;1.65;;
38479;SDS011;62333;51.980;5.934;2022-10-10T11:38:37;5.97;;;1.58;;
38479;SDS011;62333;51.980;5.934;2022-10-10T11:41:52;5.13;;;1.77;;
38479;SDS011;62333;51.980;5.934;2022-10-10T11:46:45;5.47;;;1.45;;
38479;SDS011;62333;51.980;5.934;2022-10-10T11:49:19;5.78;;;1.58;;
38479;SDS011;62333;51.980;5.934;2022-10-10T11:54:46;5.95;;;2.05;;
38479;SDS011;62333;51.980;5.934;2022-10-10T12:00:10;4.85;;;1.75;;
38479;SDS011;62333;51.980;5.934;2022-10-10T12:02:38;5.15;;;1.27;;
38479;SDS011;62333;51.980;5.934;2022-10-10T12:05:06;6.25;;;1.40;;
38479;SDS011;62333;51.980;5.934;2022-10-10T12:10:37;3.70;;;1.35;;
38479;SDS011;62333;51.980;5.934;2022-10-10T12:15:55;6.65;;;2.03;;
38479;SDS011;62333;51.980;5.934;2022-10-10T12:18:27;7.13;;;2.00;;
38479;SDS011;62333;51.980;5.934;2022-10-10T12:21:14;5.15;;;1.92;;
38479;SDS011;62333;51.980;5.934;2022-10-10T12:23:42;6.22;;;1.83;;
38479;SDS011;62333;51.980;5.934;2022-10-10T12:26:13;5.20;;;1.45;;
38479;SDS011;62333;51.980;5.934;2022-10-10T12:28:58;3.60;;;1.75;;
38479;SDS011;62333;51.980;5.934;2022-10-10T12:31:31;4.05;;;1.60;;
38479;SDS011;62333;51.980;5.934;2022-10-10T12:46:39;4.95;;;1.30;;
38479;SDS011;62333;51.980;5.934;2022-10-10T12:49:17;5.78;;;1.25;;
38479;SDS011;62333;51.980;5.934;2022-10-10T12:51:44;5.22;;;1.27;;
38479;SDS011;62333;51.980;5.934;2022-10-10T12:54:23;6.90;;;1.90;;
38479;SDS011;62333;51.980;5.934;2022-10-10T12:59:55;4.85;;;2.25;;
38479;SDS011;62333;51.980;5.934;2022-10-10T13:02:25;5.55;;;1.48;;
38479;SDS011;62333;51.980;5.934;2022-10-10T13:04:52;5.30;;;2.10;;
38479;SDS011;62333;51.980;5.934;2022-10-10T13:07:21;6.10;;;1.92;;
38479;SDS011;62333;51.980;5.934;2022-10-10T13:09:49;4.15;;;1.85;;
38479;SDS011;62333;51.980;5.934;2022-10-10T13:12:24;4.25;;;1.45;;
38479;SDS011;62333;51.980;5.934;2022-10-10T13:14:52;4.47;;;1.90;;
38479;SDS011;62333;51.980;5.934;2022-10-10T13:17:25;5.50;;;1.98;;
38479;SDS011;62333;51.980;5.934;2022-10-10T13:19:57;3.70;;;1.50;;
38479;SDS011;62333;51.980;5.934;2022-10-10T13:22:24;11.35;;;2.80;;
38479;SDS011;62333;51.980;5.934;2022-10-10T13:24:51;7.35;;;3.28;;
38479;SDS011;62333;51.980;5.934;2022-10-10T13:27:21;4.93;;;2.05;;
38479;SDS011;62333;51.980;5.934;2022-10-10T13:29:50;5.05;;;1.52;;
38479;SDS011;62333;51.980;5.934;2022-10-10T13:32:21;5.78;;;1.55;;
38479;SDS011;62333;51.980;5.934;2022-10-10T13:35:32;4.78;;;1.48;;
38479;SDS011;62333;51.980;5.934;2022-10-10T13:37:44;6.95;;;2.72;;
38479;SDS011;62333;51.980;5.934;2022-10-10T13:40:17;3.80;;;1.60;;
38479;SDS011;62333;51.980;5.934;2022-10-10T13:42:45;14.52;;;2.42;;
38479;SDS011;62333;51.980;5.934;2022-10-10T13:47:51;6.80;;;1.98;;
38479;SDS011;62333;51.980;5.934;2022-10-10T14:01:40;5.82;;;2.40;;
38479;SDS011;62333;51.980;5.934;2022-10-10T14:07:22;4.13;;;2.00;;
38479;SDS011;62333;51.980;5.934;2022-10-10T14:10:07;4.13;;;2.00;;
38479;SDS011;62333;51.980;5.934;2022-10-10T14:12:50;5.15;;;2.15;;
38479;SDS011;62333;51.980;5.934;2022-10-10T14:20:46;7.32;;;2.17;;
38479;SDS011;62333;51.980;5.934;2022-10-10T14:23:13;7.43;;;2.28;;
38479;SDS011;62333;51.980;5.934;2022-10-10T14:25:39;8.20;;;2.92;;
38479;SDS011;62333;51.980;5.934;2022-10-10T14:28:18;5.40;;;1.50;;
38479;SDS011;62333;51.980;5.934;2022-10-10T14:30:46;4.47;;;1.35;;
38479;SDS011;62333;51.980;5.934;2022-10-10T14:33:14;6.10;;;2.53;;
38479;SDS011;62333;51.980;5.934;2022-10-10T14:35:41;4.55;;;1.77;;
38479;SDS011;62333;51.980;5.934;2022-10-10T14:38:10;7.10;;;2.40;;
38479;SDS011;62333;51.980;5.934;2022-10-10T14:40:38;4.90;;;2.33;;
38479;SDS011;62333;51.980;5.934;2022-10-10T14:43:05;2.97;;;1.60;;
38479;SDS011;62333;51.980;5.934;2022-10-10T14:45:32;5.45;;;2.35;;
38479;SDS011;62333;51.980;5.934;2022-10-10T14:47:58;3.90;;;1.88;;
38479;SDS011;62333;51.980;5.934;2022-10-10T14:50:25;6.38;;;2.15;;
38479;SDS011;62333;51.980;5.934;2022-10-10T14:52:55;4.95;;;1.23;;
38479;SDS011;62333;51.980;5.934;2022-10-10T14:55:20;2.28;;;0.70;;
38479;SDS011;62333;51.980;5.934;2022-10-10T14:57:47;2.15;;;0.38;;
38479;SDS011;62333;51.980;5.934;2022-10-10T15:00:14;2.13;;;0.43;;
38479;SDS011;62333;51.980;5.934;2022-10-10T15:02:43;1.60;;;0.63;;
38479;SDS011;62333;51.980;5.934;2022-10-10T15:05:09;0.98;;;0.30;;
38479;SDS011;62333;51.980;5.934;2022-10-10T15:07:34;2.50;;;0.28;;
38479;SDS011;62333;51.980;5.934;2022-10-10T15:10:00;1.02;;;0.30;;
38479;SDS011;62333;51.980;5.934;2022-10-10T15:12:26;1.08;;;0.22;;
38479;SDS011;62333;51.980;5.934;2022-10-10T15:14:51;1.48;;;0.35;;
38479;SDS011;62333;51.980;5.934;2022-10-10T15:17:17;1.85;;;0.38;;
38479;SDS011;62333;51.980;5.934;2022-10-10T15:19:43;0.65;;;0.30;;
38479;SDS011;62333;51.980;5.934;2022-10-10T15:22:08;3.70;;;0.40;;
38479;SDS011;62333;51.980;5.934;2022-10-10T15:24:34;0.93;;;0.10;;
38479;SDS011;62333;51.980;5.934;2022-10-10T15:27:00;1.13;;;0.40;;
38479;SDS011;62333;51.980;5.934;2022-10-10T15:29:26;0.88;;;0.15;;
38479;SDS011;62333;51.980;5.934;2022-10-10T15:31:51;1.80;;;0.57;;
38479;SDS011;62333;51.980;5.934;2022-10-10T15:34:18;0.70;;;0.10;;
38479;SDS011;62333;51.980;5.934;2022-10-10T15:36:45;2.75;;;0.45;;
38479;SDS011;62333;51.980;5.934;2022-10-10T15:39:11;2.42;;;0.80;;
38479;SDS011;62333;51.980;5.934;2022-10-10T15:41:37;1.17;;;0.30;;
38479;SDS011;62333;51.980;5.934;2022-10-10T15:44:03;3.53;;;0.30;;
38479;SDS011;62333;51.980;5.934;2022-10-10T15:46:29;4.53;;;1.02;;
38479;SDS011;62333;51.980;5.934;2022-10-10T15:48:59;3.45;;;0.80;;
38479;SDS011;62333;51.980;5.934;2022-10-10T15:51:26;2.35;;;0.43;;
38479;SDS011;62333;51.980;5.934;2022-10-10T15:53:55;3.03;;;0.30;;
38479;SDS011;62333;51.980;5.934;2022-10-10T15:56:22;3.83;;;0.77;;
38479;SDS011;62333;51.980;5.934;2022-10-10T15:58:51;3.88;;;0.73;;
38479;SDS011;62333;51.980;5.934;2022-10-10T16:01:22;2.78;;;1.00;;
38479;SDS011;62333;51.980;5.934;2022-10-10T16:03:48;4.45;;;0.85;;
38479;SDS011;62333;51.980;5.934;2022-10-10T16:06:15;3.33;;;0.73;;
38479;SDS011;62333;51.980;5.934;2022-10-10T16:08:42;6.55;;;0.95;;
38479;SDS011;62333;51.980;5.934;2022-10-10T16:11:12;6.45;;;0.98;;
38479;SDS011;62333;51.980;5.934;2022-10-10T16:13:40;4.35;;;0.82;;
38479;SDS011;62333;51.980;5.934;2022-10-10T16:16:10;5.35;;;1.08;;
38479;SDS011;62333;51.980;5.934;2022-10-10T16:18:37;6.85;;;1.52;;
38479;SDS011;62333;51.980;5.934;2022-10-10T16:21:04;8.00;;;1.58;;
38479;SDS011;62333;51.980;5.934;2022-10-10T16:23:34;3.95;;;1.00;;
38479;SDS011;62333;51.980;5.934;2022-10-10T16:26:02;3.60;;;1.20;;
38479;SDS011;62333;51.980;5.934;2022-10-10T16:28:29;5.78;;;1.88;;
38479;SDS011;62333;51.980;5.934;2022-10-10T16:30:55;7.30;;;1.20;;
38479;SDS011;62333;51.980;5.934;2022-10-10T16:33:20;3.90;;;1.20;;
38479;SDS011;62333;51.980;5.934;2022-10-10T16:35:46;6.88;;;1.60;;
38479;SDS011;62333;51.980;5.934;2022-10-10T16:38:12;5.20;;;1.42;;
38479;SDS011;62333;51.980;5.934;2022-10-10T16:40:38;7.30;;;1.38;;
38479;SDS011;62333;51.980;5.934;2022-10-10T16:43:03;4.00;;;1.10;;
38479;SDS011;62333;51.980;5.934;2022-10-10T16:45:29;4.05;;;0.80;;
38479;SDS011;62333;51.980;5.934;2022-10-10T16:47:55;8.23;;;1.50;;
38479;SDS011;62333;51.980;5.934;2022-10-10T16:50:20;3.17;;;1.02;;
38479;SDS011;62333;51.980;5.934;2022-10-10T16:52:46;14.98;;;2.33;;
38479;SDS011;62333;51.980;5.934;2022-10-10T16:55:12;5.28;;;1.00;;
38479;SDS011;62333;51.980;5.934;2022-10-10T16:57:38;3.53;;;0.75;;
38479;SDS011;62333;51.980;5.934;2022-10-10T17:00:05;13.93;;;1.25;;
38479;SDS011;62333;51.980;5.934;2022-10-10T17:02:32;5.63;;;1.48;;
38479;SDS011;62333;51.980;5.934;2022-10-10T17:04:59;7.82;;;1.48;;
38479;SDS011;62333;51.980;5.934;2022-10-10T17:07:25;6.15;;;0.80;;
38479;SDS011;62333;51.980;5.934;2022-10-10T17:09:50;7.38;;;0.82;;
38479;SDS011;62333;51.980;5.934;2022-10-10T17:12:16;7.32;;;1.98;;
38479;SDS011;62333;51.980;5.934;2022-10-10T17:14:43;6.00;;;1.00;;
38479;SDS011;62333;51.980;5.934;2022-10-10T17:17:09;5.85;;;1.27;;
38479;SDS011;62333;51.980;5.934;2022-10-10T17:19:35;5.93;;;1.38;;
38479;SDS011;62333;51.980;5.934;2022-10-10T17:22:00;5.78;;;1.60;;
38479;SDS011;62333;51.980;5.934;2022-10-10T17:24:26;9.60;;;1.23;;